• Join FlightAware (Why Join?)
  • Login
  • US Flag 
Rudolph Flight #1: Arrived! 
05:48PM EST


 

Airport Tracker/Info


-or-


 

Live Flight TrackerFlight Track Log ✈ UPS1337 ✈ 25-Feb-2014 ✈ KPIE - KSDF

Flight Track Log - Related Links

Times and Time Zones

All times are in EST time to prevent confusion due to time zone crossing. See the UPS1337 flight status page for this flight to view local times or setup timezone preferences in your user account.

Time Position Orientation Groundspeed Altitude Reporting Facility
EST Latitude Longitude Course Direction KTS MPH feet Rate Location/Type
09:39PM 27.9333 -82.7000 24° Northeast 170 196 900  Level Tampa TRACON
09:40PM 27.9667 -82.6833 24° Northeast 212 244 3,000 1,560 Climbing Tampa TRACON
09:41PM 28.0333 -82.6833 360° North 278 320 4,000 1,200 Climbing Tampa TRACON
09:42PM 28.1000 -82.7167 336° Northwest 261 300 5,400 1,680 Climbing Tampa TRACON
09:44PM 28.2125 -82.7583 342° North 272 313 8,300 2,280 Climbing Jacksonville Center
09:45PM 28.2939 -82.7581 360° North 272 313 11,200 2,160 Climbing Jacksonville Center
09:46PM 28.3919 -82.7581 360° North 306 352 12,700 2,100 Climbing Jacksonville Center
09:47PM 28.4942 -82.7581 360° North 346 398 15,500 2,640 Climbing Jacksonville Center
09:48PM 28.6047 -82.7578 360° North 375 432 18,000 2,100 Climbing Jacksonville Center
09:54PM 29.2685 -82.9501 360° North 425 489 30,000 1,560 Climbing FlightAware ADS-B (KMCO)
09:55PM 29.4516 -83.0056 345° North 412 474 30,000 -60 Level FlightAware ADS-B (KMCO)
09:56PM 29.4919 -83.0214 345° North 419 482 29,900  Descending Jacksonville Center
09:57PM 29.6067 -83.0550 346° North 419 482 30,000  Climbing Jacksonville Center
09:58PM 29.7172 -83.0886 345° North 413 475 30,000  Level Jacksonville Center
09:59PM 29.8258 -83.1272 343° North 413 475 30,000  Level Jacksonville Center
10:00PM 29.9342 -83.1611 345° North 408 470 30,000  Level Jacksonville Center
10:01PM 30.0489 -83.1997 344° North 408 470 30,000  Level Jacksonville Center
10:07PM 30.6886 -83.5062 344° North 403 464 30,000  Level FlightAware ADS-B (KTLH)
10:09PM 30.8867 -83.5700 345° North 410 472 30,000  Level FlightAware ADS-B (KTLH)
10:09PM 30.9476 -83.5891 345° North 409 471 30,000  Level FlightAware ADS-B (KTLH)
10:10PM 31.0624 -83.6240 345° North 409 471 30,000  Level FlightAware ADS-B (KTLH)
10:12PM 31.2614 -83.6853 345° North 409 471 30,000  Level FlightAware ADS-B (KTLH)
10:13PM 31.3289 -83.7072 345° North 399 459 30,000  Level Jacksonville Center
10:15PM 31.5503 -83.7781 345° North 395 455 30,000  Level Atlanta Center
10:16PM 31.6586 -83.8069 347° North 395 455 30,000  Level Atlanta Center
10:17PM 31.7672 -83.8433 344° North 395 455 30,000  Level Atlanta Center
10:18PM 31.8864 -83.8822 345° North 403 464 30,000  Level Atlanta Center
10:19PM 31.9950 -83.9164 345° North 398 458 30,000  Level Atlanta Center
10:20PM 32.1036 -83.9481 346° North 398 458 30,000  Level Atlanta Center
10:21PM 32.2119 -83.9825 345° North 398 458 30,000  Level Atlanta Center
10:22PM 32.3186 -84.0167 345° North 398 458 30,000  Level Atlanta Center
10:23PM 32.4269 -84.0511 345° North 398 458 30,000  Level Atlanta Center
10:24PM 32.5356 -84.0856 345° North 398 458 30,000  Level Atlanta Center
10:25PM 32.6419 -84.1228 344° North 398 458 30,000  Level Atlanta Center
10:26PM 32.7525 -84.1525 347° North 398 458 30,000  Level Atlanta Center
10:27PM 32.8592 -84.1897 344° North 398 458 30,000  Level Atlanta Center
10:28PM 32.9572 -84.2244 343° North 403 464 30,000  Level Atlanta Center
10:29PM 33.0761 -84.2619 345° North 403 464 30,000  Level Atlanta Center
10:30PM 33.1867 -84.2969 345° North 403 464 30,000  Level Atlanta Center
10:31PM 33.2972 -84.3319 345° North 403 464 30,000  Level Atlanta Center
10:32PM 33.4078 -84.3672 345° North 403 464 30,000  Level Atlanta Center
10:38PM 34.0830 -84.5450 345° North 427 491 30,000  Level FlightAware ADS-B (KDZJ)
10:38PM 34.1617 -84.5638 349° North 427 491 30,000  Level FlightAware ADS-B (KDZJ)
10:39PM 34.2413 -84.5836 348° North 426 490 30,000  Level FlightAware ADS-B (KDZJ)
10:40PM 34.3187 -84.6030 348° North 425 489 30,000  Level FlightAware ADS-B (KDZJ)
10:40PM 34.3972 -84.6229 348° North 426 490 30,000  Level FlightAware ADS-B (KDZJ)
10:41PM 34.4763 -84.6427 348° North 424 488 30,000  Level FlightAware ADS-B (KDZJ)
10:42PM 34.5535 -84.6626 348° North 431 496 30,000  Level FlightAware ADS-B (KDZJ)
10:42PM 34.6330 -84.6824 348° North 430 495 30,000  Level FlightAware ADS-B (KDZJ)
10:43PM 34.7096 -84.7022 348° North 430 495 30,000  Level FlightAware ADS-B (KDZJ)
10:44PM 34.7890 -84.7219 348° North 429 494 30,000  Level FlightAware ADS-B (KDZJ)
10:44PM 34.8664 -84.7418 348° North 428 493 30,000  Level FlightAware ADS-B (KDZJ)
10:45PM 34.9448 -84.7622 348° North 427 491 30,000  Level FlightAware ADS-B (KDZJ)
10:46PM 35.0223 -84.7821 348° North 427 491 30,000  Level FlightAware ADS-B (KDZJ)
10:46PM 35.0954 -84.8005 348° North 429 494 30,000  Level FlightAware ADS-B (KDZJ)
10:49PM 35.4019 -84.8795 348° North 425 489 30,000  Level FlightAware ADS-B (KMDQ)
10:50PM 35.5003 -84.9086 348° North 427 491 30,000  Level Atlanta Center
10:51PM 35.6147 -84.9381 348° North 427 491 30,000  Level Atlanta Center
10:52PM 35.7314 -84.9675 348° North 427 491 30,000 -60 Level Atlanta Center
10:57PM 36.3381 -85.1082 348° North 421 484 29,900 -360 Descending FlightAware ADS-B (KMDQ)
11:00PM 36.6265 -85.1572 352° North 427 491 27,500 -1,080 Descending FlightAware ADS-B
11:01PM 36.7611 -85.1323 North 426 490 26,300 -1,080 Descending FlightAware ADS-B
11:02PM 36.8576 -85.1128 North 414 476 25,300 -1,020 Descending FlightAware ADS-B
11:03PM 36.9915 -85.0863 North 410 472 24,300 -1,320 Descending FlightAware ADS-B
11:04PM 37.1041 -85.0637 North 398 458 22,700 -1,920 Descending FlightAware ADS-B
11:05PM 37.2119 -85.0421 North 384 442 20,500 -2,220 Descending FlightAware ADS-B
11:06PM 37.3152 -85.0214 North 375 432 18,300 -2,280 Descending FlightAware ADS-B
11:07PM 37.4144 -85.0011 North 342 394 16,000 -2,280 Descending FlightAware ADS-B
11:08PM 37.5190 -84.9807 North 342 394 13,500 -1,980 Descending FlightAware ADS-B
11:10PM 37.6819 -84.9880 358° North 266 306 10,100 -1,320 Descending FlightAware ADS-B
11:11PM 37.7276 -85.0525 312° West 239 275 9,600 -780 Descending FlightAware ADS-B
11:12PM 37.7601 -85.1230 300° West 222 255 8,600 -1,020 Descending FlightAware ADS-B
11:13PM 37.7922 -85.2027 297° West 225 259 7,500 -1,080 Descending FlightAware ADS-B
11:14PM 37.8305 -85.2975 297° West 251 289 6,100 -1,080 Descending FlightAware ADS-B
11:16PM 37.8699 -85.3982 296° West 247 284 4,800 -1,020 Descending FlightAware ADS-B
11:16PM 37.8995 -85.4746 296° West 242 278 3,800 -960 Descending FlightAware ADS-B
11:18PM 37.9312 -85.5509 298° West 235 270 2,900 -480 Descending FlightAware ADS-B
11:19PM 37.9628 -85.6193 300° West 209 241 2,900 -60 Level FlightAware ADS-B
11:20PM 38.0078 -85.6689 319° Northwest 173 199 2,800  Descending FlightAware ADS-B
11:21PM 38.0500 -85.6833 208° Southwest 173 199 3,000 -300 Climbing Louisville TRACON
11:21PM 38.0613 -85.6882 344° North 152 175 2,500 -1,020 Descending FlightAware ADS-B
11:22PM 38.1037 -85.7029 345° North 119 137 1,600 -780 Descending FlightAware ADS-B
11:22PM 38.1092 -85.7047 345° North 118 136 1,400 -420 Descending FlightAware ADS-B
11:23PM 38.1333 -85.7167 343° North 119 137 1,300 -240 Descending Louisville TRACON
11:25PM 38.1741 -85.7365 152° Southeast  Level Estimated
11:26PM 38.1667 -85.7333 208° Southwest  Level FlightAware Approximate
11:32PM 38.1741 -85.7365 331° Northwest  Level Estimated